sensor_id;sensor_type;location;lat;lon;timestamp;pressure;altitude;pressure_sealevel;temperature;humidity
30875;BME280;17581;43.222;27.924;2022-10-31T00:03:42;100991.88;;;17.43;70.91
30875;BME280;17581;43.222;27.924;2022-10-31T00:06:08;100952.34;;;17.23;70.77
30875;BME280;17581;43.222;27.924;2022-10-31T00:08:33;100993.06;;;17.41;70.55
30875;BME280;17581;43.222;27.924;2022-10-31T00:10:58;100989.50;;;17.40;70.80
30875;BME280;17581;43.222;27.924;2022-10-31T00:13:24;100997.81;;;17.39;71.08
30875;BME280;17581;43.222;27.924;2022-10-31T00:15:49;100993.59;;;17.45;71.15
30875;BME280;17581;43.222;27.924;2022-10-31T00:18:15;100950.47;;;17.24;71.09
30875;BME280;17581;43.222;27.924;2022-10-31T00:20:40;100983.81;;;17.52;71.20
30875;BME280;17581;43.222;27.924;2022-10-31T00:23:06;100974.59;;;17.53;71.28
30875;BME280;17581;43.222;27.924;2022-10-31T00:25:37;100984.06;;;17.58;71.44
30875;BME280;17581;43.222;27.924;2022-10-31T00:28:04;100982.88;;;17.61;71.40
30875;BME280;17581;43.222;27.924;2022-10-31T00:30:30;100985.59;;;17.61;71.54
30875;BME280;17581;43.222;27.924;2022-10-31T00:32:55;100988.31;;;17.61;71.77
30875;BME280;17581;43.222;27.924;2022-10-31T00:35:20;100987.78;;;17.57;71.94
30875;BME280;17581;43.222;27.924;2022-10-31T00:37:46;100980.78;;;17.55;71.98
30875;BME280;17581;43.222;27.924;2022-10-31T00:40:12;100975.66;;;17.52;72.00
30875;BME280;17581;43.222;27.924;2022-10-31T00:42:39;100977.75;;;17.58;71.76
30875;BME280;17581;43.222;27.924;2022-10-31T00:45:05;100983.19;;;17.58;71.20
30875;BME280;17581;43.222;27.924;2022-10-31T00:47:30;100984.34;;;17.55;71.57
30875;BME280;17581;43.222;27.924;2022-10-31T00:49:55;100949.75;;;17.39;71.90
30875;BME280;17581;43.222;27.924;2022-10-31T00:52:21;100984.88;;;17.59;71.92
30875;BME280;17581;43.222;27.924;2022-10-31T00:54:46;100980.69;;;17.64;72.29
30875;BME280;17581;43.222;27.924;2022-10-31T00:57:12;100977.97;;;17.64;72.56
30875;BME280;17581;43.222;27.924;2022-10-31T00:59:37;100979.81;;;17.64;72.85
30875;BME280;17581;43.222;27.924;2022-10-31T01:02:03;100977.97;;;17.64;72.85
30875;BME280;17581;43.222;27.924;2022-10-31T01:04:28;100976.78;;;17.67;72.69
30875;BME280;17581;43.222;27.924;2022-10-31T01:06:54;100979.19;;;17.70;72.39
30875;BME280;17581;43.222;27.924;2022-10-31T01:09:19;100979.84;;;17.72;72.30
30875;BME280;17581;43.222;27.924;2022-10-31T01:11:45;100983.59;;;17.71;72.20
30875;BME280;17581;43.222;27.924;2022-10-31T01:14:10;100987.00;;;17.73;72.13
30875;BME280;17581;43.222;27.924;2022-10-31T01:16:35;100985.31;;;17.72;72.18
30875;BME280;17581;43.222;27.924;2022-10-31T01:19:01;100977.81;;;17.74;71.92
30875;BME280;17581;43.222;27.924;2022-10-31T01:21:28;100977.00;;;17.73;71.93
30875;BME280;17581;43.222;27.924;2022-10-31T01:23:55;100986.69;;;17.76;71.93
30875;BME280;17581;43.222;27.924;2022-10-31T01:26:25;100981.25;;;17.76;71.67
30875;BME280;17581;43.222;27.924;2022-10-31T01:28:54;100951.22;;;17.60;71.88
30875;BME280;17581;43.222;27.924;2022-10-31T01:31:22;100978.53;;;17.76;71.80
30875;BME280;17581;43.222;27.924;2022-10-31T01:33:48;100970.69;;;17.73;71.53
30875;BME280;17581;43.222;27.924;2022-10-31T01:36:18;100975.09;;;17.74;71.61
30875;BME280;17581;43.222;27.924;2022-10-31T01:38:44;100977.81;;;17.74;71.62
30875;BME280;17581;43.222;27.924;2022-10-31T01:41:13;100983.97;;;17.76;71.53
30875;BME280;17581;43.222;27.924;2022-10-31T01:43:46;100980.53;;;17.74;71.36
30875;BME280;17581;43.222;27.924;2022-10-31T01:46:13;100974.41;;;17.72;71.63
30875;BME280;17581;43.222;27.924;2022-10-31T01:48:40;100949.13;;;17.54;71.70
30875;BME280;17581;43.222;27.924;2022-10-31T01:51:06;100954.88;;;17.51;71.76
30875;BME280;17581;43.222;27.924;2022-10-31T01:53:33;100985.47;;;17.70;71.81
30875;BME280;17581;43.222;27.924;2022-10-31T01:56:00;100983.75;;;17.69;71.73
30875;BME280;17581;43.222;27.924;2022-10-31T01:58:28;100985.94;;;17.66;71.95
30875;BME280;17581;43.222;27.924;2022-10-31T02:00:58;100984.22;;;17.65;71.82
30875;BME280;17581;43.222;27.924;2022-10-31T02:03:26;100935.94;;;17.33;71.87
30875;BME280;17581;43.222;27.924;2022-10-31T02:05:54;100981.16;;;17.60;71.65
30875;BME280;17581;43.222;27.924;2022-10-31T02:08:31;100984.88;;;17.59;71.81
30875;BME280;17581;43.222;27.924;2022-10-31T02:10:59;100990.00;;;17.62;71.71
30875;BME280;17581;43.222;27.924;2022-10-31T02:13:27;100990.16;;;17.60;71.52
30875;BME280;17581;43.222;27.924;2022-10-31T02:15:56;100984.88;;;17.59;71.53
30875;BME280;17581;43.222;27.924;2022-10-31T02:18:23;100972.06;;;17.51;71.38
30875;BME280;17581;43.222;27.924;2022-10-31T02:34:52;100990.84;;;17.62;70.23
30875;BME280;17581;43.222;27.924;2022-10-31T02:37:32;101002.78;;;17.61;69.93
30875;BME280;17581;43.222;27.924;2022-10-31T02:40:22;101010.06;;;17.61;69.71
30875;BME280;17581;43.222;27.924;2022-10-31T02:48:12;101006.31;;;17.62;70.12
30875;BME280;17581;43.222;27.924;2022-10-31T02:50:42;101001.81;;;17.53;69.92
30875;BME280;17581;43.222;27.924;2022-10-31T02:53:08;101007.41;;;17.51;69.90
30875;BME280;17581;43.222;27.924;2022-10-31T03:00:32;101000.88;;;17.62;70.96
30875;BME280;17581;43.222;27.924;2022-10-31T03:08:22;101007.34;;;17.61;71.57
30875;BME280;17581;43.222;27.924;2022-10-31T03:10:56;101001.19;;;17.59;72.06
30875;BME280;17581;43.222;27.924;2022-10-31T03:16:01;101008.09;;;17.53;72.07
30875;BME280;17581;43.222;27.924;2022-10-31T03:18:32;100977.41;;;17.35;72.15
30875;BME280;17581;43.222;27.924;2022-10-31T03:21:04;101005.88;;;17.49;72.20
30875;BME280;17581;43.222;27.924;2022-10-31T03:23:32;101017.06;;;17.46;71.89
30875;BME280;17581;43.222;27.924;2022-10-31T03:26:00;101011.78;;;17.44;72.33
30875;BME280;17581;43.222;27.924;2022-10-31T03:28:37;101006.84;;;17.39;72.56
30875;BME280;17581;43.222;27.924;2022-10-31T03:31:04;101023.31;;;17.38;72.68
30875;BME280;17581;43.222;27.924;2022-10-31T03:33:36;101027.56;;;17.40;72.56
30875;BME280;17581;43.222;27.924;2022-10-31T03:36:05;101024.31;;;17.37;72.33
30875;BME280;17581;43.222;27.924;2022-10-31T03:38:34;100992.75;;;17.18;72.21
30875;BME280;17581;43.222;27.924;2022-10-31T03:41:03;101024.44;;;17.27;72.31
30875;BME280;17581;43.222;27.924;2022-10-31T03:43:34;101003.84;;;17.07;72.28
30875;BME280;17581;43.222;27.924;2022-10-31T03:46:03;101037.63;;;17.22;71.49
30875;BME280;17581;43.222;27.924;2022-10-31T03:48:29;101015.03;;;17.04;70.87
30875;BME280;17581;43.222;27.924;2022-10-31T03:51:00;101036.06;;;17.20;70.70
30875;BME280;17581;43.222;27.924;2022-10-31T03:56:23;101037.00;;;17.28;70.72
30875;BME280;17581;43.222;27.924;2022-10-31T03:59:05;100993.31;;;17.04;70.70
30875;BME280;17581;43.222;27.924;2022-10-31T04:01:34;101047.22;;;17.34;70.75
30875;BME280;17581;43.222;27.924;2022-10-31T04:04:03;101048.63;;;17.38;70.38
30875;BME280;17581;43.222;27.924;2022-10-31T04:06:30;101053.75;;;17.41;70.46
30875;BME280;17581;43.222;27.924;2022-10-31T04:09:01;101047.00;;;17.46;70.49
30875;BME280;17581;43.222;27.924;2022-10-31T04:11:33;101044.28;;;17.46;70.36
30875;BME280;17581;43.222;27.924;2022-10-31T04:14:01;101042.25;;;17.48;70.41
30875;BME280;17581;43.222;27.924;2022-10-31T04:16:27;101047.69;;;17.48;70.18
30875;BME280;17581;43.222;27.924;2022-10-31T04:18:52;101058.06;;;17.52;70.09
30875;BME280;17581;43.222;27.924;2022-10-31T04:21:18;101052.34;;;17.55;69.83
30875;BME280;17581;43.222;27.924;2022-10-31T04:23:43;101064.00;;;17.48;70.06
30875;BME280;17581;43.222;27.924;2022-10-31T04:26:11;101030.56;;;17.29;69.72
30875;BME280;17581;43.222;27.924;2022-10-31T04:28:37;101061.66;;;17.53;69.21
30875;BME280;17581;43.222;27.924;2022-10-31T04:31:02;101076.69;;;17.57;69.02
30875;BME280;17581;43.222;27.924;2022-10-31T04:33:28;101057.38;;;17.50;68.80
30875;BME280;17581;43.222;27.924;2022-10-31T04:35:53;101061.66;;;17.53;68.76
30875;BME280;17581;43.222;27.924;2022-10-31T04:38:19;101068.81;;;17.54;68.63
30875;BME280;17581;43.222;27.924;2022-10-31T04:40:45;101074.25;;;17.54;68.60
30875;BME280;17581;43.222;27.924;2022-10-31T04:43:11;101075.56;;;17.50;68.63
30875;BME280;17581;43.222;27.924;2022-10-31T04:45:37;101070.28;;;17.48;68.48
30875;BME280;17581;43.222;27.924;2022-10-31T04:48:03;101082.03;;;17.49;68.45
30875;BME280;17581;43.222;27.924;2022-10-31T04:50:28;101085.13;;;17.54;68.49
30875;BME280;17581;43.222;27.924;2022-10-31T04:52:54;101097.56;;;17.56;68.39
30875;BME280;17581;43.222;27.924;2022-10-31T04:55:19;101096.00;;;17.54;68.56
30875;BME280;17581;43.222;27.924;2022-10-31T04:57:46;101101.00;;;17.58;68.27
30875;BME280;17581;43.222;27.924;2022-10-31T05:00:14;101102.56;;;17.61;67.62
30875;BME280;17581;43.222;27.924;2022-10-31T05:05:10;101125.69;;;17.65;67.09
30875;BME280;17581;43.222;27.924;2022-10-31T05:07:42;101133.34;;;17.61;66.62
30875;BME280;17581;43.222;27.924;2022-10-31T05:10:09;101125.00;;;17.45;66.83
30875;BME280;17581;43.222;27.924;2022-10-31T05:12:35;101129.53;;;17.36;66.91
30875;BME280;17581;43.222;27.924;2022-10-31T05:15:01;101115.94;;;17.36;66.69
30875;BME280;17581;43.222;27.924;2022-10-31T05:17:26;101140.97;;;17.58;66.22
30875;BME280;17581;43.222;27.924;2022-10-31T05:19:52;101142.31;;;17.62;66.10
30875;BME280;17581;43.222;27.924;2022-10-31T05:22:17;101134.88;;;17.64;65.91
30875;BME280;17581;43.222;27.924;2022-10-31T05:24:42;101143.72;;;17.66;66.08
30875;BME280;17581;43.222;27.924;2022-10-31T05:27:08;101122.91;;;17.57;66.04
30875;BME280;17581;43.222;27.924;2022-10-31T05:29:33;101146.34;;;17.75;66.33
30875;BME280;17581;43.222;27.924;2022-10-31T05:31:59;101155.69;;;17.73;66.20
30875;BME280;17581;43.222;27.924;2022-10-31T05:34:24;101154.28;;;17.69;66.24
30875;BME280;17581;43.222;27.924;2022-10-31T05:36:50;101157.34;;;17.66;66.09
30875;BME280;17581;43.222;27.924;2022-10-31T05:39:15;101161.13;;;17.73;65.90
30875;BME280;17581;43.222;27.924;2022-10-31T05:41:40;101156.38;;;17.75;65.58
30875;BME280;17581;43.222;27.924;2022-10-31T05:44:06;101175.88;;;17.88;65.39
30875;BME280;17581;43.222;27.924;2022-10-31T05:46:31;101161.25;;;17.89;65.04
30875;BME280;17581;43.222;27.924;2022-10-31T05:48:57;101181.09;;;18.07;65.19
30875;BME280;17581;43.222;27.924;2022-10-31T05:51:22;101184.22;;;18.12;65.09
30875;BME280;17581;43.222;27.924;2022-10-31T05:53:48;101161.38;;;18.05;65.60
30875;BME280;17581;43.222;27.924;2022-10-31T05:56:13;101191.47;;;18.29;65.68
30875;BME280;17581;43.222;27.924;2022-10-31T05:58:38;101193.22;;;18.38;65.60
30875;BME280;17581;43.222;27.924;2022-10-31T06:01:04;101191.25;;;18.48;65.29
30875;BME280;17581;43.222;27.924;2022-10-31T06:03:30;101192.56;;;18.62;64.48
30875;BME280;17581;43.222;27.924;2022-10-31T06:05:56;101184.22;;;18.64;64.40
30875;BME280;17581;43.222;27.924;2022-10-31T06:08:21;101191.75;;;18.78;64.14
30875;BME280;17581;43.222;27.924;2022-10-31T06:10:47;101195.88;;;18.90;63.42
30875;BME280;17581;43.222;27.924;2022-10-31T06:13:12;101152.25;;;18.74;62.84
30875;BME280;17581;43.222;27.924;2022-10-31T06:15:37;101189.28;;;19.00;62.58
30875;BME280;17581;43.222;27.924;2022-10-31T06:18:04;101194.94;;;19.07;62.20
30875;BME280;17581;43.222;27.924;2022-10-31T06:20:31;101192.22;;;19.07;62.41
30875;BME280;17581;43.222;27.924;2022-10-31T06:22:56;101191.88;;;19.10;62.30
30875;BME280;17581;43.222;27.924;2022-10-31T06:25:22;101194.94;;;19.07;62.61
30875;BME280;17581;43.222;27.924;2022-10-31T06:27:47;101171.03;;;18.93;62.62
30875;BME280;17581;43.222;27.924;2022-10-31T06:30:13;101203.13;;;19.07;62.75
30875;BME280;17581;43.222;27.924;2022-10-31T06:32:38;101192.53;;;19.04;62.84
30875;BME280;17581;43.222;27.924;2022-10-31T06:35:04;101191.88;;;19.10;63.08
30875;BME280;17581;43.222;27.924;2022-10-31T06:37:30;101205.19;;;19.13;62.90
30875;BME280;17581;43.222;27.924;2022-10-31T06:39:55;101181.97;;;19.09;62.91
30875;BME280;17581;43.222;27.924;2022-10-31T06:42:20;101207.59;;;19.24;62.92
30875;BME280;17581;43.222;27.924;2022-10-31T06:44:46;101207.59;;;19.24;63.00
30875;BME280;17581;43.222;27.924;2022-10-31T06:47:11;101220.22;;;19.25;63.25
30875;BME280;17581;43.222;27.924;2022-10-31T06:49:37;101221.41;;;19.31;63.45
30875;BME280;17581;43.222;27.924;2022-10-31T06:52:02;101216.31;;;19.36;63.36
30875;BME280;17581;43.222;27.924;2022-10-31T06:54:28;101219.78;;;19.46;63.41
30875;BME280;17581;43.222;27.924;2022-10-31T06:56:53;101213.66;;;19.52;63.50
30875;BME280;17581;43.222;27.924;2022-10-31T06:59:18;101213.50;;;19.53;63.45
30875;BME280;17581;43.222;27.924;2022-10-31T07:01:44;101227.66;;;19.65;63.31
30875;BME280;17581;43.222;27.924;2022-10-31T07:04:10;101225.44;;;19.69;63.16
30875;BME280;17581;43.222;27.924;2022-10-31T07:06:36;101219.31;;;19.75;63.11
30875;BME280;17581;43.222;27.924;2022-10-31T07:09:04;101218.63;;;19.81;63.12
30875;BME280;17581;43.222;27.924;2022-10-31T07:11:29;101221.34;;;19.89;63.48
30875;BME280;17581;43.222;27.924;2022-10-31T07:13:55;101223.94;;;19.90;62.75
30875;BME280;17581;43.222;27.924;2022-10-31T07:16:21;101220.31;;;19.98;62.05
30875;BME280;17581;43.222;27.924;2022-10-31T07:18:46;101212.47;;;20.03;61.63
30875;BME280;17581;43.222;27.924;2022-10-31T07:21:12;101216.75;;;20.05;61.37
30875;BME280;17581;43.222;27.924;2022-10-31T07:23:37;101213.81;;;20.15;61.04
30875;BME280;17581;43.222;27.924;2022-10-31T07:26:03;101210.59;;;20.03;60.50
30875;BME280;17581;43.222;27.924;2022-10-31T07:28:28;101218.28;;;20.00;59.84
30875;BME280;17581;43.222;27.924;2022-10-31T07:30:56;101226.81;;;19.97;59.66
30875;BME280;17581;43.222;27.924;2022-10-31T07:33:23;101226.13;;;20.03;59.83
30875;BME280;17581;43.222;27.924;2022-10-31T07:35:50;101224.06;;;20.13;59.28
30875;BME280;17581;43.222;27.924;2022-10-31T07:38:16;101194.41;;;20.02;59.34
30875;BME280;17581;43.222;27.924;2022-10-31T07:40:42;101219.28;;;20.23;58.50
30875;BME280;17581;43.222;27.924;2022-10-31T07:43:08;101219.84;;;20.27;58.26
30875;BME280;17581;43.222;27.924;2022-10-31T07:45:35;101183.78;;;20.07;58.36
30875;BME280;17581;43.222;27.924;2022-10-31T07:48:00;101203.25;;;20.20;58.25
30875;BME280;17581;43.222;27.924;2022-10-31T07:50:30;101227.50;;;20.39;58.15
30875;BME280;17581;43.222;27.924;2022-10-31T07:53:04;101229.88;;;20.42;58.11
30875;BME280;17581;43.222;27.924;2022-10-31T07:55:30;101231.22;;;20.46;58.18
30875;BME280;17581;43.222;27.924;2022-10-31T07:58:01;101230.56;;;20.44;58.47
30875;BME280;17581;43.222;27.924;2022-10-31T08:00:27;101225.75;;;20.46;58.55
30875;BME280;17581;43.222;27.924;2022-10-31T08:05:24;101206.97;;;20.51;58.33
30875;BME280;17581;43.222;27.924;2022-10-31T08:07:50;101221.63;;;20.67;58.13
30875;BME280;17581;43.222;27.924;2022-10-31T08:10:15;101229.63;;;20.68;58.48
30875;BME280;17581;43.222;27.924;2022-10-31T08:12:41;101223.97;;;20.78;58.17
30875;BME280;17581;43.222;27.924;2022-10-31T08:15:07;101239.97;;;20.89;58.13
30875;BME280;17581;43.222;27.924;2022-10-31T08:17:35;101222.59;;;20.74;58.52
30875;BME280;17581;43.222;27.924;2022-10-31T08:20:01;101234.91;;;20.78;58.40
30875;BME280;17581;43.222;27.924;2022-10-31T08:22:26;101208.31;;;20.63;58.73
30875;BME280;17581;43.222;27.924;2022-10-31T08:24:52;101219.16;;;20.88;58.78
30875;BME280;17581;43.222;27.924;2022-10-31T08:27:17;101226.97;;;20.99;59.17
30875;BME280;17581;43.222;27.924;2022-10-31T08:29:43;101231.56;;;20.98;59.54
30875;BME280;17581;43.222;27.924;2022-10-31T08:32:08;101227.59;;;21.17;58.95
30875;BME280;17581;43.222;27.924;2022-10-31T08:34:34;101219.22;;;21.19;59.37
30875;BME280;17581;43.222;27.924;2022-10-31T08:36:59;101220.00;;;21.27;59.54
30875;BME280;17581;43.222;27.924;2022-10-31T08:39:24;101181.44;;;21.14;59.44
30875;BME280;17581;43.222;27.924;2022-10-31T08:41:50;101222.66;;;21.43;59.61
30875;BME280;17581;43.222;27.924;2022-10-31T08:44:15;101235.00;;;21.39;60.23
30875;BME280;17581;43.222;27.924;2022-10-31T08:46:41;101234.91;;;21.55;59.57
30875;BME280;17581;43.222;27.924;2022-10-31T08:49:06;101248.53;;;21.63;59.37
30875;BME280;17581;43.222;27.924;2022-10-31T08:51:32;101218.63;;;21.54;59.56
30875;BME280;17581;43.222;27.924;2022-10-31T08:53:57;101236.78;;;21.78;58.64
30875;BME280;17581;43.222;27.924;2022-10-31T08:56:23;101214.56;;;21.73;58.96
30875;BME280;17581;43.222;27.924;2022-10-31T08:58:48;101232.22;;;21.93;59.48
30875;BME280;17581;43.222;27.924;2022-10-31T09:01:14;101236.47;;;22.18;59.10
30875;BME280;17581;43.222;27.924;2022-10-31T09:03:39;101246.44;;;22.34;57.98
30875;BME280;17581;43.222;27.924;2022-10-31T09:06:05;101240.03;;;22.56;56.69
30875;BME280;17581;43.222;27.924;2022-10-31T09:08:34;101217.25;;;22.55;56.43
30875;BME280;17581;43.222;27.924;2022-10-31T09:11:00;101229.31;;;22.84;56.21
30875;BME280;17581;43.222;27.924;2022-10-31T09:13:26;101235.63;;;22.99;55.59
30875;BME280;17581;43.222;27.924;2022-10-31T09:15:52;101226.13;;;23.16;55.10
30875;BME280;17581;43.222;27.924;2022-10-31T09:18:22;101232.38;;;23.10;55.36
30875;BME280;17581;43.222;27.924;2022-10-31T09:20:48;101223.34;;;22.80;56.17
30875;BME280;17581;43.222;27.924;2022-10-31T09:23:15;101223.69;;;22.62;56.83
30875;BME280;17581;43.222;27.924;2022-10-31T09:25:42;101211.81;;;22.33;57.30
30875;BME280;17581;43.222;27.924;2022-10-31T09:28:13;101229.72;;;22.43;57.24
30875;BME280;17581;43.222;27.924;2022-10-31T09:30:39;101216.53;;;22.24;56.64
30875;BME280;17581;43.222;27.924;2022-10-31T09:33:09;101215.81;;;22.30;57.10
30875;BME280;17581;43.222;27.924;2022-10-31T09:35:35;101211.38;;;22.29;57.10
30875;BME280;17581;43.222;27.924;2022-10-31T09:38:05;101211.94;;;22.39;57.22
30875;BME280;17581;43.222;27.924;2022-10-31T09:40:35;101219.38;;;22.68;56.07
30875;BME280;17581;43.222;27.924;2022-10-31T09:45:29;101213.88;;;22.83;55.53
30875;BME280;17581;43.222;27.924;2022-10-31T09:50:29;101183.00;;;22.51;54.26
30875;BME280;17581;43.222;27.924;2022-10-31T09:53:02;101208.00;;;22.86;53.83
30875;BME280;17581;43.222;27.924;2022-10-31T09:55:38;101209.09;;;23.06;53.36
30875;BME280;17581;43.222;27.924;2022-10-31T09:58:07;101181.03;;;23.04;52.91
30875;BME280;17581;43.222;27.924;2022-10-31T10:00:38;101210.22;;;23.26;52.63
30875;BME280;17581;43.222;27.924;2022-10-31T10:03:15;101214.22;;;23.09;52.74
30875;BME280;17581;43.222;27.924;2022-10-31T10:06:01;101196.44;;;23.05;53.08
30875;BME280;17581;43.222;27.924;2022-10-31T10:08:31;101191.47;;;23.29;52.63
30875;BME280;17581;43.222;27.924;2022-10-31T10:16:29;101168.84;;;22.92;53.12
30875;BME280;17581;43.222;27.924;2022-10-31T10:24:50;101168.81;;;23.06;53.08
30875;BME280;17581;43.222;27.924;2022-10-31T10:30:22;101142.28;;;22.48;53.41
30875;BME280;17581;43.222;27.924;2022-10-31T10:32:55;101183.81;;;22.74;53.30
30875;BME280;17581;43.222;27.924;2022-10-31T10:35:32;101190.88;;;22.69;53.21
30875;BME280;17581;43.222;27.924;2022-10-31T10:38:10;101190.50;;;22.57;53.71
30875;BME280;17581;43.222;27.924;2022-10-31T10:40:37;101189.59;;;22.65;54.00
30875;BME280;17581;43.222;27.924;2022-10-31T10:43:34;101187.00;;;22.93;53.98
30875;BME280;17581;43.222;27.924;2022-10-31T10:49:19;101189.13;;;23.12;53.50
30875;BME280;17581;43.222;27.924;2022-10-31T10:52:06;101193.38;;;23.29;52.89
30875;BME280;17581;43.222;27.924;2022-10-31T10:59:51;101160.59;;;23.63;51.30
30875;BME280;17581;43.222;27.924;2022-10-31T11:02:25;101146.47;;;23.66;50.83
30875;BME280;17581;43.222;27.924;2022-10-31T11:04:54;101169.34;;;23.52;51.95
30875;BME280;17581;43.222;27.924;2022-10-31T11:07:20;101152.44;;;23.34;52.45
30875;BME280;17581;43.222;27.924;2022-10-31T11:09:46;101168.91;;;23.34;52.17
30875;BME280;17581;43.222;27.924;2022-10-31T11:12:26;101169.91;;;23.12;52.68
30875;BME280;17581;43.222;27.924;2022-10-31T11:14:56;101174.25;;;23.21;52.42
30875;BME280;17581;43.222;27.924;2022-10-31T11:17:33;101174.69;;;23.03;52.43
30875;BME280;17581;43.222;27.924;2022-10-31T11:20:01;101155.97;;;22.92;52.61
30875;BME280;17581;43.222;27.924;2022-10-31T11:22:27;101165.16;;;22.99;52.63
30875;BME280;17581;43.222;27.924;2022-10-31T11:24:52;101155.16;;;22.77;51.78
30875;BME280;17581;43.222;27.924;2022-10-31T11:27:24;101172.25;;;22.79;51.46
30875;BME280;17581;43.222;27.924;2022-10-31T11:29:50;101130.56;;;22.40;52.21
30875;BME280;17581;43.222;27.924;2022-10-31T11:32:24;101164.03;;;22.50;52.11
30875;BME280;17581;43.222;27.924;2022-10-31T11:34:55;101164.41;;;22.47;52.32
30875;BME280;17581;43.222;27.924;2022-10-31T11:37:27;101140.19;;;22.21;52.86
30875;BME280;17581;43.222;27.924;2022-10-31T11:39:59;101149.91;;;22.09;53.57
30875;BME280;17581;43.222;27.924;2022-10-31T11:42:35;101142.38;;;22.26;53.66
30875;BME280;17581;43.222;27.924;2022-10-31T11:45:04;101170.88;;;22.68;53.43
30875;BME280;17581;43.222;27.924;2022-10-31T11:47:31;101171.03;;;22.82;53.27
30875;BME280;17581;43.222;27.924;2022-10-31T11:50:01;101170.69;;;23.06;53.12
30875;BME280;17581;43.222;27.924;2022-10-31T11:52:30;101160.41;;;23.08;51.98
30875;BME280;17581;43.222;27.924;2022-10-31T11:57:51;101136.16;;;23.11;50.98
30875;BME280;17581;43.222;27.924;2022-10-31T12:02:50;101149.38;;;22.87;50.71
30875;BME280;17581;43.222;27.924;2022-10-31T12:05:26;101146.53;;;22.80;50.75
30875;BME280;17581;43.222;27.924;2022-10-31T12:07:56;101154.00;;;22.86;50.43
30875;BME280;17581;43.222;27.924;2022-10-31T12:10:27;101154.09;;;22.93;50.08
30875;BME280;17581;43.222;27.924;2022-10-31T12:13:16;101142.81;;;22.88;50.19
30875;BME280;17581;43.222;27.924;2022-10-31T12:15:55;101151.47;;;23.20;49.41
30875;BME280;17581;43.222;27.924;2022-10-31T12:29:06;101144.34;;;23.26;49.50
30875;BME280;17581;43.222;27.924;2022-10-31T12:44:55;101152.22;;;23.50;48.91
30875;BME280;17581;43.222;27.924;2022-10-31T12:53:09;101143.41;;;23.19;50.38
30875;BME280;17581;43.222;27.924;2022-10-31T12:58:33;101148.22;;;22.96;50.79
30875;BME280;17581;43.222;27.924;2022-10-31T13:01:14;101157.31;;;22.96;50.97
30875;BME280;17581;43.222;27.924;2022-10-31T13:06:15;101128.47;;;22.86;51.04
30875;BME280;17581;43.222;27.924;2022-10-31T13:08:53;101124.38;;;22.82;51.08
30875;BME280;17581;43.222;27.924;2022-10-31T13:16:32;101137.16;;;22.60;51.08
30875;BME280;17581;43.222;27.924;2022-10-31T13:19:05;101140.09;;;22.58;51.00
30875;BME280;17581;43.222;27.924;2022-10-31T13:24:23;101129.91;;;22.52;51.12
30875;BME280;17581;43.222;27.924;2022-10-31T13:26:57;101148.44;;;22.50;51.58
30875;BME280;17581;43.222;27.924;2022-10-31T13:29:33;101129.22;;;22.36;51.55
30875;BME280;17581;43.222;27.924;2022-10-31T13:32:06;101151.25;;;22.42;51.35
30875;BME280;17581;43.222;27.924;2022-10-31T13:34:38;101145.97;;;22.26;51.83
30875;BME280;17581;43.222;27.924;2022-10-31T13:42:58;101151.03;;;22.00;52.08
30875;BME280;17581;43.222;27.924;2022-10-31T13:45:27;101150.47;;;21.82;52.73
30875;BME280;17581;43.222;27.924;2022-10-31T13:50:41;101162.09;;;21.84;52.93
30875;BME280;17581;43.222;27.924;2022-10-31T13:53:12;101155.00;;;21.75;53.20
30875;BME280;17581;43.222;27.924;2022-10-31T13:55:41;101150.44;;;21.67;53.16
30875;BME280;17581;43.222;27.924;2022-10-31T13:58:28;101161.69;;;21.72;53.27
30875;BME280;17581;43.222;27.924;2022-10-31T14:03:26;101157.19;;;21.56;53.80
30875;BME280;17581;43.222;27.924;2022-10-31T14:05:54;101129.84;;;21.34;54.15
30875;BME280;17581;43.222;27.924;2022-10-31T14:08:23;101133.81;;;21.31;54.40
30875;BME280;17581;43.222;27.924;2022-10-31T14:10:51;101159.38;;;21.38;54.58
30875;BME280;17581;43.222;27.924;2022-10-31T14:13:24;101161.75;;;21.41;54.57
30875;BME280;17581;43.222;27.924;2022-10-31T14:15:58;101171.38;;;21.37;54.77
30875;BME280;17581;43.222;27.924;2022-10-31T14:18:28;101163.22;;;21.29;54.86
30875;BME280;17581;43.222;27.924;2022-10-31T14:20:55;101162.63;;;21.19;55.12
30875;BME280;17581;43.222;27.924;2022-10-31T14:28:42;101139.44;;;20.99;55.33
30875;BME280;17581;43.222;27.924;2022-10-31T14:34:26;101178.41;;;21.09;55.84
30875;BME280;17581;43.222;27.924;2022-10-31T14:50:52;101192.06;;;21.01;56.59
30875;BME280;17581;43.222;27.924;2022-10-31T14:53:23;101203.06;;;20.93;56.56
30875;BME280;17581;43.222;27.924;2022-10-31T14:55:52;101151.25;;;20.60;56.81
30875;BME280;17581;43.222;27.924;2022-10-31T14:58:35;101202.81;;;20.72;57.20
30875;BME280;17581;43.222;27.924;2022-10-31T15:01:02;101202.13;;;20.70;57.42
30875;BME280;17581;43.222;27.924;2022-10-31T15:03:38;101210.16;;;20.71;57.47
30875;BME280;17581;43.222;27.924;2022-10-31T15:06:11;101209.47;;;20.69;57.75
30875;BME280;17581;43.222;27.924;2022-10-31T15:08:38;101217.84;;;20.68;57.71
30875;BME280;17581;43.222;27.924;2022-10-31T15:11:21;101210.03;;;20.56;57.92
30875;BME280;17581;43.222;27.924;2022-10-31T15:13:57;101189.09;;;20.33;58.00
30875;BME280;17581;43.222;27.924;2022-10-31T15:16:31;101202.22;;;20.37;58.29
30875;BME280;17581;43.222;27.924;2022-10-31T15:19:10;101210.75;;;20.34;58.25